Time;durP1;ratioP1;P1;durP2;ratioP2;P2;SDS_P1;SDS_P2;PMS_P1;PMS_P2;Temp;Humidity;BMP_temperature;BMP_pressure;BME280_temperature;BME280_humidity;BME280_pressure;Samples;Min_cycle;Max_cycle;Signal;HPM_P1;HPM_P2
2021/03/30 00:00:29;;;;;;;14.57;5.57;;;;;;;4.65;60.99;98199.94;5066104;28;20051;-61
2021/03/30 00:03:14;;;;;;;8.40;4.13;;;;;;;4.71;61.38;98203.41;5066579;28;20097;-62
2021/03/30 00:05:59;;;;;;;11.20;5.20;;;;;;;4.11;61.30;98142.28;5066341;28;20051;-61
2021/03/30 00:08:43;;;;;;;11.55;5.50;;;;;;;4.25;60.46;98151.34;5066633;28;20582;-60
2021/03/30 00:11:27;;;;;;;9.80;4.20;;;;;;;4.67;61.20;98218.84;5065993;28;20129;-61
2021/03/30 00:14:11;;;;;;;7.55;3.15;;;;;;;4.44;61.51;98182.25;5066289;28;20109;-62
2021/03/30 00:16:56;;;;;;;9.07;3.58;;;;;;;4.26;62.25;98180.41;5065286;28;20086;-61
2021/03/30 00:19:40;;;;;;;4.28;1.95;;;;;;;4.26;61.11;98180.41;5066117;28;20432;-62
2021/03/30 00:22:24;;;;;;;7.00;2.83;;;;;;;4.09;62.05;98151.94;5065071;28;20047;-63
2021/03/30 00:25:09;;;;;;;9.20;3.80;;;;;;;4.33;62.43;98197.25;5065794;28;20078;-62
2021/03/30 00:27:54;;;;;;;6.63;3.35;;;;;;;4.37;60.95;98198.28;5066501;28;20064;-62
2021/03/30 00:30:38;;;;;;;7.35;3.10;;;;;;;4.05;60.90;98184.59;5065117;28;20027;-62
2021/03/30 00:33:22;;;;;;;10.50;4.03;;;;;;;4.28;62.58;98194.59;5064640;28;20584;-63
2021/03/30 00:36:07;;;;;;;7.47;3.22;;;;;;;4.09;63.43;98191.13;5064177;28;20035;-62
2021/03/30 00:38:51;;;;;;;6.32;3.03;;;;;;;4.17;62.63;98204.13;5065921;28;20470;-63
2021/03/30 00:41:42;;;;;;;9.18;3.92;;;;;;;4.03;63.57;98175.88;5064025;28;20059;-63
2021/03/30 00:44:26;;;;;;;9.95;4.15;;;;;;;3.99;64.26;98206.91;5058663;28;20521;-61
2021/03/30 00:47:14;;;;;;;8.25;3.22;;;;;;;4.01;62.94;98200.03;5045306;28;20526;-61
2021/03/30 00:49:59;;;;;;;6.70;3.53;;;;;;;3.78;63.90;98179.03;5045479;28;20118;-62
2021/03/30 00:52:45;;;;;;;4.38;2.20;;;;;;;3.94;63.62;98199.59;5045347;28;20518;-62
2021/03/30 00:55:30;;;;;;;7.38;3.70;;;;;;;3.88;63.96;98233.69;5045197;28;20135;-61
2021/03/30 00:58:15;;;;;;;3.47;1.90;;;;;;;3.39;64.64;98129.25;5044338;28;20105;-62
2021/03/30 01:00:59;;;;;;;6.97;3.28;;;;;;;3.88;63.33;98194.50;5044985;28;20094;-61
2021/03/30 01:03:43;;;;;;;9.30;3.17;;;;;;;3.85;64.63;98190.44;5043602;28;20048;-61
2021/03/30 01:06:27;;;;;;;7.32;3.97;;;;;;;3.89;63.60;98191.47;5043564;28;20503;-62
2021/03/30 01:09:17;;;;;;;10.20;4.55;;;;;;;3.62;66.07;98185.84;5045546;28;20682;-62
2021/03/30 01:12:28;;;;;;;9.90;3.67;;;;;;;2.86;66.43;98101.31;5044784;28;20044;-61
2021/03/30 01:15:18;;;;;;;6.00;2.90;;;;;;;3.33;67.05;98187.97;5044783;28;20039;-61
2021/03/30 01:18:27;;;;;;;4.25;2.20;;;;;;;3.30;65.40;98176.78;5043602;28;20079;-61
2021/03/30 01:21:44;;;;;;;6.65;3.83;;;;;;;3.40;66.36;98191.13;5044774;28;20569;-62
2021/03/30 01:24:43;;;;;;;8.65;4.22;;;;;;;3.31;66.13;98190.19;5044685;28;20052;-60
2021/03/30 01:27:43;;;;;;;7.68;3.22;;;;;;;3.49;64.66;98197.59;5043650;28;20595;-61
2021/03/30 01:30:32;;;;;;;8.65;3.80;;;;;;;3.44;66.02;98196.84;5044262;28;20125;-62
2021/03/30 01:33:21;;;;;;;10.88;4.68;;;;;;;3.43;66.33;98198.75;5043883;28;20051;-61
2021/03/30 01:36:06;;;;;;;8.50;3.30;;;;;;;3.40;65.83;98210.31;5044302;28;20403;-62
2021/03/30 01:38:51;;;;;;;7.32;2.78;;;;;;;2.88;67.19;98256.97;5044614;28;20064;-61
2021/03/30 01:41:36;;;;;;;8.18;3.70;;;;;;;3.20;66.77;98201.56;5042473;28;20098;-61
2021/03/30 01:44:24;;;;;;;8.40;4.35;;;;;;;3.16;66.82;98176.72;5049352;28;20108;-61
2021/03/30 01:47:08;;;;;;;7.95;3.05;;;;;;;3.38;64.94;98200.75;5062439;28;20106;-61
2021/03/30 01:49:52;;;;;;;6.03;2.75;;;;;;;3.21;66.83;98195.00;5064011;28;20056;-60
2021/03/30 01:52:37;;;;;;;7.75;2.95;;;;;;;3.12;67.39;98203.03;5064167;28;20087;-60
2021/03/30 01:55:22;;;;;;;10.25;2.92;;;;;;;3.26;66.93;98175.75;5063810;28;20039;-61
2021/03/30 01:58:08;;;;;;;15.45;7.38;;;;;;;3.39;65.54;98203.19;5062771;28;20888;-60
2021/03/30 02:00:53;;;;;;;8.45;4.05;;;;;;;3.54;65.63;98208.44;5064059;28;20132;-60
2021/03/30 02:03:39;;;;;;;9.07;3.88;;;;;;;3.59;64.59;98213.84;5064440;28;20077;-60
2021/03/30 02:06:23;;;;;;;17.27;7.60;;;;;;;3.57;64.80;98209.78;5063962;28;20598;-62
2021/03/30 02:09:13;;;;;;;16.13;5.95;;;;;;;3.45;65.70;98204.75;5063992;28;20051;-61
2021/03/30 02:12:07;;;;;;;11.77;4.57;;;;;;;3.48;65.72;98206.91;5063325;28;20097;-61
2021/03/30 02:14:51;;;;;;;14.05;6.40;;;;;;;3.30;65.37;98166.66;5064059;28;20044;-61
2021/03/30 02:17:50;;;;;;;11.88;4.65;;;;;;;3.62;65.47;98212.47;5062731;28;20048;-61
2021/03/30 02:20:40;;;;;;;7.05;3.70;;;;;;;3.59;66.14;98208.38;5063651;28;20101;-62
2021/03/30 02:23:26;;;;;;;14.80;6.07;;;;;;;3.33;65.99;98168.78;5062550;28;20054;-61
2021/03/30 02:26:13;;;;;;;16.95;8.40;;;;;;;3.58;66.53;98211.41;5062433;28;20221;-62
2021/03/30 02:28:58;;;;;;;16.55;8.02;;;;;;;3.59;65.14;98208.38;5063725;28;20174;-62
2021/03/30 02:31:45;;;;;;;35.33;14.93;;;;;;;3.60;65.36;98207.28;5063829;28;20083;-61
2021/03/30 02:34:33;;;;;;;24.30;13.18;;;;;;;3.62;65.67;98215.19;5062298;28;20044;-62
2021/03/30 02:37:19;;;;;;;44.03;23.98;;;;;;;3.09;66.10;98126.97;5061684;28;20047;-60
2021/03/30 02:40:08;;;;;;;17.60;8.85;;;;;;;3.64;66.37;98211.03;5064003;28;20650;-61
2021/03/30 02:42:53;;;;;;;27.90;11.57;;;;;;;3.57;66.90;98210.63;5062983;28;20036;-62
2021/03/30 02:45:37;;;;;;;43.45;19.55;;;;;;;3.53;67.26;98209.56;5047123;28;20526;-62
2021/03/30 02:48:22;;;;;;;62.25;22.77;;;;;;;3.55;67.52;98207.34;5043503;28;20047;-62
2021/03/30 02:51:07;;;;;;;28.25;10.85;;;;;;;3.24;65.89;98159.59;5041794;28;20410;-62
2021/03/30 02:53:53;;;;;;;30.27;13.00;;;;;;;3.59;66.44;98208.38;5045925;28;20087;-62
2021/03/30 02:56:37;;;;;;;29.92;14.10;;;;;;;3.56;66.20;98208.97;5046820;28;20087;-63
2021/03/30 02:59:22;;;;;;;20.33;10.15;;;;;;;3.47;66.66;98188.84;5048425;28;20039;-63
2021/03/30 03:02:06;;;;;;;14.55;7.82;;;;;;;3.62;65.67;98210.53;5047459;28;20149;-63
2021/03/30 03:04:51;;;;;;;14.52;5.65;;;;;;;3.65;65.28;98223.63;5047592;28;20580;-63
2021/03/30 03:07:37;;;;;;;11.38;5.80;;;;;;;3.57;65.17;98210.63;5046302;28;20083;-62
2021/03/30 03:10:21;;;;;;;11.63;5.32;;;;;;;3.60;65.52;98215.50;5047128;28;20059;-62
2021/03/30 03:13:12;;;;;;;12.15;5.25;;;;;;;3.69;65.71;98218.38;5046253;28;20592;-62
2021/03/30 03:15:56;;;;;;;18.80;7.45;;;;;;;3.61;65.68;98222.59;5046684;28;20048;-61
2021/03/30 03:18:42;;;;;;;23.08;8.70;;;;;;;3.08;65.27;98130.84;5047987;28;20091;-61
2021/03/30 03:21:26;;;;;;;18.08;8.70;;;;;;;3.73;64.65;98209.25;5047089;28;20040;-61
2021/03/30 03:24:12;;;;;;;16.15;7.82;;;;;;;3.36;65.14;98149.03;5046243;28;20087;-62
2021/03/30 03:26:57;;;;;;;20.60;8.13;;;;;;;3.36;64.15;98116.16;5046498;28;20048;-62
2021/03/30 03:29:42;;;;;;;16.33;6.93;;;;;;;3.74;64.19;98188.97;5047322;28;20094;-60
2021/03/30 03:32:26;;;;;;;10.30;4.82;;;;;;;4.27;61.04;98214.94;5046821;28;20127;-62
2021/03/30 03:35:13;;;;;;;10.27;4.55;;;;;;;4.49;60.12;98206.84;5047014;28;20098;-62
2021/03/30 03:37:57;;;;;;;11.18;3.72;;;;;;;4.51;60.06;98243.03;5047193;28;20344;-62
2021/03/30 03:40:41;;;;;;;14.38;4.45;;;;;;;4.68;60.90;98219.69;5046864;28;20047;-61
2021/03/30 03:43:25;;;;;;;15.63;4.35;;;;;;;4.55;60.52;98221.28;5047005;28;20503;-61
2021/03/30 03:46:14;;;;;;;7.68;4.00;;;;;;;4.47;59.80;98206.31;5046712;28;20401;-62
2021/03/30 03:49:00;;;;;;;10.32;3.90;;;;;;;4.26;58.32;98166.69;5046746;28;20114;-60
2021/03/30 03:51:57;;;;;;;10.75;4.10;;;;;;;4.42;57.44;98179.00;5045353;28;20117;-61
2021/03/30 03:54:43;;;;;;;10.88;4.57;;;;;;;4.88;57.66;98219.28;5046602;28;20052;-62
2021/03/30 03:57:33;;;;;;;8.93;4.35;;;;;;;4.81;58.74;98207.88;5045752;28;20140;-62
2021/03/30 04:00:20;;;;;;;12.48;5.03;;;;;;;4.72;59.40;98198.72;5046086;28;20126;-62
2021/03/30 04:03:31;;;;;;;12.18;4.55;;;;;;;5.00;56.29;98216.81;5046769;28;20506;-62
2021/03/30 04:06:18;;;;;;;9.98;4.03;;;;;;;4.93;57.43;98219.19;5044346;28;20419;-62
2021/03/30 04:09:06;;;;;;;10.27;4.18;;;;;;;4.76;57.28;98301.31;5046387;28;20040;-63
2021/03/30 04:11:52;;;;;;;12.27;5.03;;;;;;;5.08;56.39;98227.09;5046231;28;20044;-62
2021/03/30 04:14:37;;;;;;;7.18;3.67;;;;;;;4.55;56.53;98139.78;5046357;28;20048;-63
2021/03/30 04:17:21;;;;;;;8.35;4.55;;;;;;;4.27;56.81;98104.41;5044340;28;20040;-62
2021/03/30 04:20:11;;;;;;;9.55;3.85;;;;;;;5.44;53.13;98189.50;5045717;28;20055;-62
2021/03/30 04:25:39;;;;;;;11.25;4.82;;;;;;;5.72;52.28;98163.56;5045472;28;20043;-61
2021/03/30 04:28:23;;;;;;;9.85;5.63;;;;;;;6.32;51.96;98227.28;5046321;28;20056;-62
2021/03/30 04:31:07;;;;;;;11.85;4.53;;;;;;;6.44;51.91;98225.56;5045561;28;20088;-62
2021/03/30 04:33:51;;;;;;;13.43;5.45;;;;;;;6.15;51.98;98156.44;5058981;28;20163;-61
2021/03/30 04:36:35;;;;;;;12.18;5.75;;;;;;;6.66;51.65;98232.97;5045640;28;20040;-61
2021/03/30 04:39:19;;;;;;;9.50;4.68;;;;;;;6.71;49.47;98186.03;5045769;28;20052;-62
2021/03/30 04:42:03;;;;;;;10.40;5.47;;;;;;;7.05;49.23;98222.78;5045576;28;20056;-62
2021/03/30 04:44:47;;;;;;;9.23;4.90;;;;;;;7.19;48.28;98226.22;5045235;28;20040;-63
2021/03/30 04:47:31;;;;;;;11.80;5.95;;;;;;;7.42;48.17;98222.25;5045755;28;20047;-63
2021/03/30 04:50:16;;;;;;;11.90;5.22;;;;;;;7.60;47.38;98229.41;5044827;28;20104;-62
2021/03/30 04:53:00;;;;;;;7.95;3.30;;;;;;;7.13;47.16;98155.06;5044722;28;20195;-62
2021/03/30 04:55:44;;;;;;;11.45;5.60;;;;;;;7.80;46.21;98218.88;5045064;28;20071;-63
2021/03/30 04:58:28;;;;;;;9.75;5.70;;;;;;;7.96;45.04;98228.31;5045628;28;20086;-62
2021/03/30 05:01:11;;;;;;;11.20;5.22;;;;;;;7.99;46.83;98234.00;5045174;28;20043;-63
2021/03/30 05:03:55;;;;;;;16.15;6.30;;;;;;;7.96;46.94;98228.31;5044764;28;20051;-62
2021/03/30 05:06:39;;;;;;;12.27;5.20;;;;;;;7.27;47.19;98131.75;5048133;28;20465;-63
2021/03/30 05:09:23;;;;;;;11.88;5.72;;;;;;;7.95;46.62;98232.22;5057791;28;20470;-61
2021/03/30 05:12:08;;;;;;;10.65;5.65;;;;;;;7.46;46.30;98165.34;5049495;28;20489;-63
2021/03/30 05:14:52;;;;;;;7.63;4.93;;;;;;;7.22;46.90;98103.56;5054241;28;20519;-64
2021/03/30 05:17:36;;;;;;;11.77;7.05;;;;;;;7.90;45.72;98168.94;5041979;28;20048;-62
2021/03/30 05:20:20;;;;;;;12.70;5.82;;;;;;;8.26;46.21;98227.34;5056798;28;20039;-64
2021/03/30 05:23:04;;;;;;;13.13;6.50;;;;;;;8.44;46.06;98228.97;5061846;28;20071;-63
2021/03/30 05:25:48;;;;;;;10.00;5.55;;;;;;;8.41;45.91;98224.09;5047161;28;20145;-64
2021/03/30 05:28:32;;;;;;;9.85;5.70;;;;;;;8.40;45.67;98227.97;5044250;28;20071;-62
2021/03/30 05:31:16;;;;;;;12.60;6.20;;;;;;;8.15;46.36;98210.31;5044399;28;20115;-63
2021/03/30 05:34:00;;;;;;;;;;;;;;;8.39;47.29;98237.41;5045245;28;20094;-62
2021/03/30 05:36:44;;;;;;;9.25;6.10;;;;;;;8.51;47.81;98245.84;5048476;28;19935;-64
2021/03/30 05:39:28;;;;;;;9.02;5.03;;;;;;;8.20;46.92;98173.44;5055091;28;20055;-65
2021/03/30 05:42:17;;;;;;;7.25;3.45;;;;;;;6.98;46.64;98098.50;5043508;28;20080;-64
2021/03/30 05:45:03;;;;;;;8.95;5.78;;;;;;;8.10;47.54;98162.72;5042278;28;20071;-63
2021/03/30 05:47:52;;;;;;;11.48;6.95;;;;;;;8.43;46.98;98208.00;5047250;28;20047;-63
2021/03/30 05:50:37;;;;;;;12.10;5.38;;;;;;;8.83;47.31;98259.09;5053083;28;20205;-63
2021/03/30 05:53:24;;;;;;;12.57;5.72;;;;;;;8.59;47.83;98253.28;5044111;28;20097;-63
2021/03/30 05:56:09;;;;;;;8.23;5.10;;;;;;;8.76;48.56;98269.81;5048168;28;20110;-64
2021/03/30 05:58:57;;;;;;;10.02;6.10;;;;;;;8.87;47.56;98271.09;5043331;28;20043;-63
2021/03/30 06:01:42;;;;;;;12.05;5.97;;;;;;;8.59;48.68;98203.56;5052320;28;20063;-62
2021/03/30 06:04:27;;;;;;;15.02;5.53;;;;;;;8.84;49.78;98277.28;5058738;28;20036;-63
2021/03/30 06:07:11;;;;;;;11.90;5.65;;;;;;;8.64;50.97;98261.41;5044327;28;20446;-63
2021/03/30 06:09:57;;;;;;;10.40;6.03;;;;;;;8.78;49.99;98262.03;5055150;28;20039;-63
2021/03/30 06:12:43;;;;;;;11.45;6.03;;;;;;;8.79;50.89;98264.47;5044258;28;20436;-62
2021/03/30 06:15:31;;;;;;;8.65;4.40;;;;;;;8.93;51.09;98280.84;5063634;28;20063;-64
2021/03/30 06:18:18;;;;;;;10.00;6.03;;;;;;;8.45;51.06;98208.50;5051484;28;20434;-63
2021/03/30 06:21:14;;;;;;;10.02;5.10;;;;;;;8.86;51.13;98269.47;5062820;28;20042;-64
2021/03/30 06:23:59;;;;;;;10.95;6.30;;;;;;;8.87;52.02;98293.19;5063823;28;20039;-62
2021/03/30 06:26:43;;;;;;;11.23;6.70;;;;;;;8.69;52.48;98275.06;5053985;28;20129;-63
2021/03/30 06:29:38;;;;;;;12.40;5.03;;;;;;;8.63;52.54;98281.91;5043114;28;20148;-63
2021/03/30 06:32:24;;;;;;;10.25;6.22;;;;;;;8.92;51.91;98279.22;5043201;28;20103;-64
2021/03/30 06:35:12;;;;;;;11.32;6.32;;;;;;;9.10;51.21;98272.50;5048653;28;20040;-64
2021/03/30 06:37:56;;;;;;;19.35;7.38;;;;;;;9.35;50.21;98271.56;5042179;28;20159;-60
2021/03/30 06:40:41;;;;;;;12.85;7.35;;;;;;;9.56;50.77;98272.47;5042211;28;20475;-62
2021/03/30 06:46:28;;;;;;;9.45;6.22;;;;;;;9.40;52.06;98279.69;5043024;28;20043;-61
2021/03/30 06:49:19;;;;;;;12.38;7.25;;;;;;;9.15;50.22;98189.41;5047669;28;20160;-59
2021/03/30 06:52:18;;;;;;;11.10;7.28;;;;;;;9.89;49.86;98281.69;5062968;28;20083;-62
2021/03/30 06:55:04;;;;;;;11.43;6.07;;;;;;;9.87;49.67;98272.91;5062121;28;20111;-62
2021/03/30 06:57:49;;;;;;;13.82;7.80;;;;;;;10.01;49.59;98267.09;5060304;28;20128;-64
2021/03/30 07:00:38;;;;;;;12.90;7.50;;;;;;;9.17;49.46;98149.22;5052054;28;20121;-62
2021/03/30 07:03:23;;;;;;;16.40;7.82;;;;;;;9.70;49.47;98242.59;5058282;28;20123;-62
2021/03/30 07:06:11;;;;;;;10.43;6.05;;;;;;;10.02;49.18;98241.06;5055164;28;20113;-62
2021/03/30 07:08:56;;;;;;;18.20;9.93;;;;;;;10.28;49.72;98261.88;5050593;28;20135;-62
2021/03/30 07:11:41;;;;;;;12.45;8.10;;;;;;;10.83;48.39;98261.50;5043023;28;20472;-62
2021/03/30 07:14:25;;;;;;;16.17;7.80;;;;;;;11.14;47.70;98269.31;5051032;28;20427;-61
2021/03/30 07:17:11;;;;;;;13.23;8.20;;;;;;;10.98;47.24;98271.97;5055518;28;20044;-62
2021/03/30 07:19:59;;;;;;;10.18;7.60;;;;;;;11.18;45.91;98273.03;5053895;28;20554;-63
2021/03/30 07:22:46;;;;;;;16.80;7.15;;;;;;;10.34;47.55;98268.81;5050645;28;20245;-60
2021/03/30 07:25:35;;;;;;;11.63;7.78;;;;;;;11.04;46.26;98255.91;5044850;28;20134;-62
2021/03/30 07:28:23;;;;;;;14.88;8.70;;;;;;;11.62;46.12;98272.13;5049791;28;20150;-60
2021/03/30 07:31:11;;;;;;;16.88;8.45;;;;;;;11.86;45.49;98272.16;5044484;28;20048;-59
2021/03/30 07:33:58;;;;;;;14.73;8.07;;;;;;;12.10;44.55;98274.91;5052536;28;20551;-61
2021/03/30 07:36:52;;;;;;;21.05;13.23;;;;;;;12.43;43.69;98267.16;5044701;28;20056;-61
2021/03/30 07:39:42;;;;;;;;;;;;;;;12.44;42.45;98274.34;5060724;28;20159;-62
2021/03/30 07:42:28;;;;;;;21.70;12.32;;;;;;;12.45;42.39;98273.19;5059954;28;19935;-62
2021/03/30 07:45:14;;;;;;;11.57;7.88;;;;;;;12.64;41.59;98265.00;5053739;28;20144;-63
2021/03/30 07:47:59;;;;;;;12.75;7.72;;;;;;;12.72;41.04;98266.84;5062408;28;20042;-62
2021/03/30 07:50:59;;;;;;;12.57;8.55;;;;;;;12.17;41.12;98267.59;5049742;28;20060;-61
2021/03/30 07:53:53;;;;;;;16.23;8.18;;;;;;;12.37;42.00;98265.00;5054553;28;20640;-62
2021/03/30 07:56:44;;;;;;;13.52;8.25;;;;;;;12.25;42.46;98274.16;5058541;28;20052;-61
2021/03/30 07:59:48;;;;;;;12.23;7.90;;;;;;;11.72;42.04;98255.06;5066170;28;20047;-63
2021/03/30 08:02:32;;;;;;;11.57;8.38;;;;;;;11.78;41.29;98259.19;5061139;28;20067;-62
2021/03/30 08:05:16;;;;;;;11.57;8.18;;;;;;;11.51;41.17;98207.16;5046158;28;20157;-64
2021/03/30 08:08:00;;;;;;;12.77;7.75;;;;;;;12.06;40.69;98254.56;5046194;28;20043;-65
2021/03/30 08:10:46;;;;;;;10.82;7.38;;;;;;;12.17;41.53;98219.56;5045456;28;20110;-63
2021/03/30 08:13:34;;;;;;;13.13;8.75;;;;;;;12.28;40.03;98197.66;5052000;28;20067;-62
2021/03/30 08:16:20;;;;;;;12.23;9.02;;;;;;;12.66;40.58;98254.31;5059477;28;20177;-63
2021/03/30 08:19:09;;;;;;;15.95;8.30;;;;;;;11.98;40.66;98197.19;5052558;28;20114;-62
2021/03/30 08:21:59;;;;;;;12.88;9.07;;;;;;;12.54;40.44;98232.16;5045387;28;20545;-61
2021/03/30 08:24:43;;;;;;;14.52;8.85;;;;;;;12.44;40.80;98249.31;5045672;28;20130;-61
2021/03/30 08:27:30;;;;;;;23.00;11.25;;;;;;;11.87;41.62;98257.13;5060800;28;20101;-62
2021/03/30 08:30:18;;;;;;;13.52;8.50;;;;;;;12.32;41.84;98254.13;5058909;28;20428;-63
2021/03/30 08:33:04;;;;;;;17.08;10.45;;;;;;;11.50;40.31;98037.09;5049560;28;20103;-61
2021/03/30 08:35:49;;;;;;;13.70;8.25;;;;;;;13.01;38.32;98241.44;5063915;28;20055;-66
2021/03/30 08:38:41;;;;;;;11.32;7.47;;;;;;;13.30;37.76;98243.81;5058088;28;20187;-62
2021/03/30 08:41:45;;;;;;;15.52;8.55;;;;;;;13.40;37.23;98237.69;5045085;28;20110;-63
2021/03/30 08:44:55;;;;;;;10.80;8.15;;;;;;;12.97;36.49;98176.53;5045421;28;20047;-62
2021/03/30 08:47:43;;;;;;;13.38;8.38;;;;;;;13.46;37.58;98227.91;5060028;28;20068;-64
2021/03/30 08:50:28;;;;;;;15.48;9.55;;;;;;;12.88;37.35;98098.03;5059892;28;20079;-63
2021/03/30 08:53:20;;;;;;;15.52;9.75;;;;;;;13.09;37.75;98143.09;5053491;28;20585;-63
2021/03/30 08:56:10;;;;;;;22.27;15.65;;;;;;;13.05;38.11;98235.97;5043466;28;20535;-63
2021/03/30 08:58:58;;;;;;;15.23;7.93;;;;;;;13.09;38.44;98220.97;5049476;28;20052;-64
2021/03/30 09:01:43;;;;;;;12.52;9.32;;;;;;;12.89;38.95;98243.44;5054801;28;20307;-63
2021/03/30 09:04:32;;;;;;;15.18;10.50;;;;;;;12.68;37.32;98243.66;5064938;28;20101;-62
2021/03/30 09:07:21;;;;;;;14.77;6.65;;;;;;;13.14;38.61;98212.38;5064679;28;20067;-63
2021/03/30 09:10:07;;;;;;;11.15;8.77;;;;;;;12.61;36.38;98176.78;5056388;28;20060;-63
2021/03/30 09:13:09;;;;;;;12.25;6.28;;;;;;;12.88;35.83;98192.56;5069011;28;20047;-62
2021/03/30 09:16:09;;;;;;;10.73;6.55;;;;;;;13.22;35.82;98242.00;5044318;28;20474;-63
2021/03/30 09:19:17;;;;;;;11.07;5.55;;;;;;;12.92;37.00;98234.38;5044916;28;20204;-62
2021/03/30 09:22:21;;;;;;;17.75;8.90;;;;;;;13.01;36.83;98247.00;5044725;28;20059;-64
2021/03/30 09:28:25;;;;;;;12.85;8.20;;;;;;;12.29;36.50;98074.22;5044387;28;20101;-62
2021/03/30 09:31:11;;;;;;;11.15;7.30;;;;;;;13.49;35.80;98227.19;5043349;28;20280;-63
2021/03/30 09:33:57;;;;;;;12.57;7.25;;;;;;;13.57;35.14;98222.59;5044533;28;20043;-62
2021/03/30 09:36:47;;;;;;;14.13;7.93;;;;;;;13.73;36.28;98223.38;5042921;28;20040;-63
2021/03/30 09:39:34;;;;;;;15.77;8.63;;;;;;;13.01;35.01;98141.28;5044521;28;20044;-62
2021/03/30 09:42:19;;;;;;;12.40;7.57;;;;;;;13.58;35.52;98254.81;5043089;28;20094;-66
2021/03/30 09:45:04;;;;;;;11.93;7.90;;;;;;;13.07;34.61;98081.44;5046377;28;20120;-66
2021/03/30 09:47:48;;;;;;;8.32;6.13;;;;;;;13.19;34.73;98130.59;5064396;28;20919;-66
2021/03/30 09:50:33;;;;;;;19.50;10.40;;;;;;;13.25;35.62;98191.19;5063834;28;20489;-65
2021/03/30 09:53:20;;;;;;;7.93;6.00;;;;;;;12.19;34.90;97947.78;5063348;28;20120;-64
2021/03/30 09:56:04;;;;;;;8.57;6.95;;;;;;;13.99;34.67;98208.84;5062525;28;20181;-64
2021/03/30 09:58:55;;;;;;;8.68;5.88;;;;;;;13.94;35.17;98198.00;5064415;28;20559;-66
2021/03/30 10:01:39;;;;;;;14.32;5.95;;;;;;;13.82;35.17;98184.16;5052862;28;20403;-63
2021/03/30 10:04:27;;;;;;;;;;;;;;;12.57;34.96;97986.84;5042793;28;20070;-64
2021/03/30 10:07:16;;;;;;;11.02;7.00;;;;;;;14.03;33.98;98204.16;5043707;28;20470;-69
2021/03/30 10:10:03;;;;;;;10.25;6.40;;;;;;;13.80;35.12;98203.25;5043635;28;20088;-62
2021/03/30 10:12:48;;;;;;;9.65;6.07;;;;;;;14.19;33.66;98197.38;5043670;28;20091;-66
2021/03/30 10:15:37;;;;;;;9.77;6.38;;;;;;;14.19;33.99;98197.38;5043874;28;20150;-68
2021/03/30 10:18:22;;;;;;;9.40;6.75;;;;;;;14.12;34.12;98174.91;5044064;28;20182;-70
2021/03/30 10:21:13;;;;;;;12.93;8.05;;;;;;;14.70;34.91;98189.69;5043562;28;20570;-66
2021/03/30 10:24:12;;;;;;;11.52;7.43;;;;;;;14.40;33.47;98124.56;5043490;28;20421;-65
2021/03/30 10:27:10;;;;;;;12.95;7.18;;;;;;;15.01;33.22;98183.88;5043064;28;20123;-64
2021/03/30 10:29:56;;;;;;;9.80;6.28;;;;;;;14.32;35.65;98184.91;5042636;28;20053;-63
2021/03/30 10:32:46;;;;;;;10.48;7.85;;;;;;;13.85;34.51;98186.25;5048069;28;20071;-65
2021/03/30 10:35:31;;;;;;;9.68;6.20;;;;;;;13.94;34.26;98184.06;5062983;28;20043;-63
2021/03/30 10:38:16;;;;;;;8.45;5.72;;;;;;;14.35;33.57;98178.59;5063626;28;20036;-62
2021/03/30 10:41:19;;;;;;;11.43;6.57;;;;;;;14.15;33.81;98171.38;5075926;28;20047;-63
2021/03/30 10:44:05;;;;;;;9.43;6.32;;;;;;;13.87;35.66;98172.75;5063640;28;20419;-66
2021/03/30 10:46:49;;;;;;;8.63;5.82;;;;;;;13.94;34.84;98175.72;5063296;28;20067;-63
2021/03/30 10:49:33;;;;;;;8.75;6.03;;;;;;;14.00;34.30;98188.19;5063179;28;20152;-64
2021/03/30 10:52:21;;;;;;;;;;;;;;;14.11;33.55;98166.91;5064623;28;20059;-61
2021/03/30 10:55:10;;;;;;;15.00;6.57;;;;;;;13.23;34.67;98082.22;5062993;28;19954;-63
2021/03/30 10:57:54;;;;;;;9.30;5.45;;;;;;;13.50;34.41;98145.28;5062209;28;20101;-61
2021/03/30 11:00:39;;;;;;;8.77;5.57;;;;;;;14.11;33.24;98162.16;5061308;28;20084;-58
2021/03/30 11:03:23;;;;;;;13.07;5.97;;;;;;;13.67;33.45;98158.78;5056312;28;20171;-58
2021/03/30 11:06:07;;;;;;;8.40;5.88;;;;;;;13.22;34.75;98114.00;5061855;28;20087;-58
2021/03/30 11:08:51;;;;;;;9.98;4.30;;;;;;;13.39;34.58;98158.13;5058339;28;20418;-57
2021/03/30 11:11:36;;;;;;;10.13;5.80;;;;;;;14.12;33.61;98151.81;5055704;28;20052;-58
2021/03/30 11:14:22;;;;;;;8.35;5.25;;;;;;;13.90;34.36;98155.31;5061182;28;20590;-60
2021/03/30 11:17:06;;;;;;;9.40;5.72;;;;;;;13.72;33.66;98187.53;5065567;28;20101;-58
2021/03/30 11:19:50;;;;;;;11.68;5.65;;;;;;;13.63;32.93;98091.09;5064744;28;20047;-57
2021/03/30 11:22:34;;;;;;;11.75;6.85;;;;;;;14.23;32.45;98141.69;5047329;28;20126;-56
2021/03/30 11:25:18;;;;;;;7.60;5.25;;;;;;;14.58;32.80;98131.25;5060061;28;20051;-57
2021/03/30 11:28:06;;;;;;;10.27;6.20;;;;;;;14.27;32.85;98142.59;5052046;28;20112;-57
2021/03/30 11:30:55;;;;;;;13.23;8.10;;;;;;;13.59;32.87;98084.63;5045583;28;20521;-57
2021/03/30 11:33:47;;;;;;;10.02;6.55;;;;;;;14.62;33.06;98126.56;5054703;28;20157;-58
2021/03/30 11:36:39;;;;;;;8.90;6.10;;;;;;;14.44;33.39;98120.66;5052519;28;20086;-57
2021/03/30 11:39:23;;;;;;;7.25;5.80;;;;;;;13.95;33.09;98135.53;5048967;28;20094;-59
2021/03/30 11:42:07;;;;;;;;;;;;;;;13.85;32.47;98122.97;5067344;28;20043;-60
2021/03/30 11:44:52;;;;;;;;;;;;;;;13.65;34.51;98127.75;5045815;28;19991;-58
2021/03/30 11:47:37;;;;;;;9.80;5.40;;;;;;;9.36;34.67;97405.00;5046671;28;19939;-57
2021/03/30 11:50:21;;;;;;;10.20;5.90;;;;;;;13.67;34.51;98108.66;5054007;28;20497;-59
2021/03/30 11:53:05;;;;;;;7.10;6.22;;;;;;;13.50;35.05;98058.97;5062288;28;20506;-60
2021/03/30 11:55:49;;;;;;;;;;;;;;;13.81;34.84;98107.38;5066532;28;20475;-59
2021/03/30 11:58:35;;;;;;;9.02;5.78;;;;;;;11.16;34.11;97681.91;5066894;28;20299;-62
2021/03/30 12:01:19;;;;;;;11.82;6.75;;;;;;;13.75;33.78;98095.72;5057020;28;20074;-59
2021/03/30 12:04:03;;;;;;;6.93;4.88;;;;;;;13.35;34.44;98081.31;5046546;28;20518;-59
2021/03/30 12:06:47;;;;;;;11.80;5.60;;;;;;;13.64;32.59;98091.91;5046516;28;20051;-60
2021/03/30 12:09:31;;;;;;;9.75;5.38;;;;;;;14.03;33.09;98076.00;5054188;28;20031;-57
2021/03/30 12:12:15;;;;;;;10.70;5.28;;;;;;;14.50;32.18;98073.75;5053026;28;20047;-59
2021/03/30 12:14:59;;;;;;;8.23;6.05;;;;;;;14.50;32.71;98057.03;5061619;28;20075;-60
2021/03/30 12:17:44;;;;;;;9.77;5.53;;;;;;;14.01;33.79;98067.19;5056060;28;20043;-61
2021/03/30 12:20:28;;;;;;;7.95;5.72;;;;;;;14.12;33.95;98069.03;5058460;28;20110;-60
2021/03/30 12:23:12;;;;;;;7.97;5.43;;;;;;;13.79;33.88;98081.84;5047874;28;20071;-60
2021/03/30 12:25:56;;;;;;;7.93;5.18;;;;;;;13.57;33.44;98070.28;5055731;28;20111;-62
2021/03/30 12:28:41;;;;;;;12.98;5.25;;;;;;;13.89;33.86;98081.28;5053709;28;20039;-61
2021/03/30 12:31:25;;;;;;;8.00;6.05;;;;;;;13.78;33.61;98063.53;5058526;28;20130;-64
2021/03/30 12:34:11;;;;;;;8.70;5.68;;;;;;;13.59;33.60;98056.78;5045917;28;20040;-59
2021/03/30 12:36:58;;;;;;;8.43;5.43;;;;;;;12.80;33.53;97962.78;5045479;28;20047;-63
2021/03/30 12:39:42;;;;;;;10.95;5.15;;;;;;;13.36;34.27;98041.97;5044601;28;20047;-60
2021/03/30 12:42:26;;;;;;;9.95;6.15;;;;;;;13.38;34.39;98039.63;5047574;28;20054;-62
2021/03/30 12:45:11;;;;;;;6.05;4.13;;;;;;;13.04;34.59;98015.41;5053115;28;20052;-57
2021/03/30 12:47:55;;;;;;;10.18;5.82;;;;;;;12.95;35.53;98038.97;5045059;28;20610;-58
2021/03/30 12:50:40;;;;;;;9.02;5.72;;;;;;;13.15;35.14;98052.63;5064486;28;20133;-58
2021/03/30 12:53:24;;;;;;;7.45;5.72;;;;;;;13.04;34.74;98029.31;5064088;28;20074;-60
2021/03/30 12:56:08;;;;;;;13.60;5.82;;;;;;;13.41;34.76;98044.47;5065234;28;20050;-59
2021/03/30 12:58:52;;;;;;;;;;;;;;;13.39;34.79;98035.69;5062337;28;20541;-59
2021/03/30 13:01:36;;;;;;;9.82;6.28;;;;;;;13.29;34.58;98036.22;5051158;28;19974;-58
2021/03/30 13:04:21;;;;;;;11.80;6.30;;;;;;;13.46;35.62;98030.28;5047374;28;20043;-59
2021/03/30 13:07:04;;;;;;;8.43;6.18;;;;;;;13.53;35.76;98024.06;5047890;28;20178;-58
2021/03/30 13:09:49;;;;;;;7.78;5.32;;;;;;;13.33;36.05;98026.00;5059491;28;20098;-58
2021/03/30 13:12:33;;;;;;;6.97;5.30;;;;;;;13.37;34.38;98004.63;5049807;28;20098;-58
2021/03/30 13:15:17;;;;;;;8.20;6.10;;;;;;;13.61;33.77;98021.03;5048534;28;20431;-59